Time;durP1;ratioP1;P1;durP2;ratioP2;P2;SDS_P1;SDS_P2;PMS_P1;PMS_P2;Temp;Humidity;BMP_temperature;BMP_pressure;BME280_temperature;BME280_humidity;BME280_pressure;Samples;Min_cycle;Max_cycle;Signal;HPM_P1;HPM_P2
2022/10/29 00:02:22;;;;;;;6.20;3.15;;;19.90;58.30;;;;;;5135747;28;20054;-11
2022/10/29 00:04:48;;;;;;;5.35;2.78;;;19.90;58.40;;;;;;5136377;28;20119;-11
2022/10/29 00:07:13;;;;;;;5.28;2.97;;;19.90;58.40;;;;;;5135729;28;20379;-11
2022/10/29 00:09:39;;;;;;;3.92;2.90;;;19.90;58.40;;;;;;5136016;28;20376;-11
2022/10/29 00:12:05;;;;;;;4.07;2.83;;;19.90;58.30;;;;;;5135625;28;20130;-11
2022/10/29 00:14:31;;;;;;;4.60;3.08;;;19.90;58.30;;;;;;5135540;28;20057;-11
2022/10/29 00:16:56;;;;;;;4.30;3.20;;;19.90;58.30;;;;;;5136180;28;20053;-11
2022/10/29 00:19:22;;;;;;;4.95;3.20;;;19.90;58.30;;;;;;5135502;28;20043;-11
2022/10/29 00:21:51;;;;;;;3.92;3.00;;;19.90;58.30;;;;;;5135669;28;20399;-11
2022/10/29 00:24:17;;;;;;;4.07;2.92;;;19.90;58.40;;;;;;5135460;28;20051;-11
2022/10/29 00:26:42;;;;;;;4.38;2.83;;;19.90;58.40;;;;;;5135463;28;20103;-11
2022/10/29 00:29:08;;;;;;;5.03;3.30;;;19.90;58.40;;;;;;5117050;28;20051;-11
2022/10/29 00:31:34;;;;;;;5.47;3.45;;;19.90;58.40;;;;;;5134681;27;20047;-11
2022/10/29 00:33:59;;;;;;;5.07;3.60;;;19.90;58.50;;;;;;5135668;28;20057;-11
2022/10/29 00:36:28;;;;;;;5.53;3.33;;;19.90;58.50;;;;;;5135157;28;20110;-11
2022/10/29 00:38:54;;;;;;;6.18;3.33;;;19.90;58.40;;;;;;5135030;28;20514;-11
2022/10/29 00:41:22;;;;;;;5.15;3.08;;;19.90;58.50;;;;;;5135121;28;20077;-11
2022/10/29 00:44:12;;;;;;;3.45;2.67;;;19.90;58.50;;;;;;5135500;28;20101;-11
2022/10/29 00:46:40;;;;;;;5.13;3.00;;;19.90;58.50;;;;;;5134927;28;20158;-11
2022/10/29 00:49:07;;;;;;;4.28;3.17;;;19.90;58.50;;;;;;5135362;28;20091;-11
2022/10/29 00:51:33;;;;;;;6.20;3.10;;;19.80;58.50;;;;;;5135089;28;20043;-11
2022/10/29 00:54:06;;;;;;;6.07;3.03;;;19.90;58.50;;;;;;5135568;28;20051;-11
2022/10/29 00:56:36;;;;;;;4.45;3.05;;;19.90;58.40;;;;;;5135367;28;20051;-11
2022/10/29 00:59:03;;;;;;;5.55;2.92;;;19.90;58.50;;;;;;5134623;28;20498;-11
2022/10/29 01:01:29;;;;;;;3.28;2.83;;;19.90;58.50;;;;;;5135084;28;20082;-11
2022/10/29 01:03:58;;;;;;;4.13;2.50;;;19.90;58.50;;;;;;5134832;28;20051;-11
2022/10/29 01:06:23;;;;;;;4.70;3.00;;;19.90;58.50;;;;;;5135281;28;20092;-11
2022/10/29 01:08:49;;;;;;;4.05;2.75;;;19.90;58.40;;;;;;5134576;28;20447;-11
2022/10/29 01:11:20;;;;;;;3.63;2.85;;;19.90;58.50;;;;;;5135298;28;20126;-11
2022/10/29 01:13:56;;;;;;;4.95;3.30;;;19.90;58.50;;;;;;5134725;28;20081;-11
2022/10/29 01:16:40;;;;;;;3.85;2.80;;;19.90;58.50;;;;;;5134535;28;20222;-11
2022/10/29 01:19:27;;;;;;;4.18;2.95;;;19.90;58.50;;;;;;5134413;28;20054;-11
2022/10/29 01:22:31;;;;;;;4.32;3.10;;;19.90;58.50;;;;;;5134223;28;20062;-11
2022/10/29 01:25:21;;;;;;;5.43;3.03;;;19.90;58.50;;;;;;5115952;28;20081;-11
2022/10/29 01:28:16;;;;;;;4.72;3.10;;;19.90;58.50;;;;;;5134327;28;20137;-11
2022/10/29 01:31:00;;;;;;;3.70;2.95;;;19.90;58.50;;;;;;5134104;28;20509;-11
2022/10/29 01:33:50;;;;;;;5.15;3.17;;;19.90;58.50;;;;;;5134695;28;20043;-11
2022/10/29 01:36:38;;;;;;;3.03;2.65;;;19.90;58.50;;;;;;5134644;28;20043;-11
2022/10/29 01:39:22;;;;;;;5.60;3.30;;;19.80;58.50;;;;;;5134828;28;20129;-11
2022/10/29 01:42:07;;;;;;;4.97;3.45;;;19.80;58.60;;;;;;5134116;28;20390;-11
2022/10/29 01:44:51;;;;;;;5.28;2.97;;;19.80;58.50;;;;;;5133045;28;20505;-11
2022/10/29 01:47:22;;;;;;;5.55;2.90;;;19.90;58.60;;;;;;5134106;28;20104;-11
2022/10/29 01:49:52;;;;;;;4.07;2.78;;;19.90;58.60;;;;;;5134270;28;20054;-11
2022/10/29 01:52:21;;;;;;;3.95;2.90;;;19.90;58.60;;;;;;5134118;28;20142;-11
2022/10/29 01:54:47;;;;;;;5.10;3.72;;;19.90;58.60;;;;;;5134059;28;20073;-11
2022/10/29 01:57:31;;;;;;;3.78;2.70;;;19.90;58.60;;;;;;5134300;28;20047;-11
2022/10/29 02:00:01;;;;;;;4.97;3.38;;;19.90;58.60;;;;;;5133865;28;20058;-11
2022/10/29 02:03:17;;;;;;;4.23;2.73;;;19.90;58.60;;;;;;5133939;28;20054;-11
2022/10/29 02:06:03;;;;;;;4.03;2.88;;;19.90;58.60;;;;;;5094818;28;20143;-11
2022/10/29 02:08:51;;;;;;;3.50;2.72;;;19.90;58.60;;;;;;5133800;28;20050;-11
2022/10/29 02:11:24;;;;;;;4.47;3.15;;;19.90;58.60;;;;;;5133658;28;20059;-11
2022/10/29 02:14:01;;;;;;;6.65;3.35;;;19.90;58.60;;;;;;5134125;28;20142;-11
2022/10/29 02:16:28;;;;;;;4.60;3.00;;;19.90;58.60;;;;;;5133812;28;20055;-11
2022/10/29 02:18:54;;;;;;;6.18;3.00;;;19.90;58.70;;;;;;5133581;28;20138;-11
2022/10/29 02:21:20;;;;;;;4.63;3.40;;;19.90;58.60;;;;;;5133370;28;20138;-11
2022/10/29 02:23:46;;;;;;;4.05;3.00;;;19.90;58.70;;;;;;5133620;28;20474;-11
2022/10/29 02:26:12;;;;;;;4.05;2.83;;;19.90;58.60;;;;;;5133657;28;20074;-11
2022/10/29 02:28:37;;;;;;;4.90;3.30;;;19.90;58.60;;;;;;5133568;28;20051;-11
2022/10/29 02:31:04;;;;;;;3.92;3.08;;;19.90;58.60;;;;;;5133500;28;20146;-11
2022/10/29 02:33:29;;;;;;;4.78;2.97;;;19.90;58.60;;;;;;5133505;28;20380;-11
2022/10/29 02:35:55;;;;;;;4.30;2.80;;;19.90;58.60;;;;;;5133768;28;20074;-11
2022/10/29 02:38:21;;;;;;;5.25;3.50;;;19.80;59.10;;;;;;5133429;28;20139;-11
2022/10/29 02:40:46;;;;;;;5.53;3.30;;;19.90;58.70;;;;;;5133313;28;20126;-11
2022/10/29 02:43:13;;;;;;;6.13;3.13;;;19.90;58.60;;;;;;5133435;28;20054;-11
2022/10/29 02:45:38;;;;;;;3.50;2.80;;;19.80;58.60;;;;;;5133290;28;20058;-11
2022/10/29 02:48:04;;;;;;;6.88;3.53;;;19.80;58.70;;;;;;5133592;28;20142;-11
2022/10/29 02:50:30;;;;;;;5.45;3.03;;;19.80;58.60;;;;;;5133522;28;20094;-11
2022/10/29 02:52:55;;;;;;;5.07;2.80;;;19.80;58.60;;;;;;5133271;28;20047;-11
2022/10/29 02:55:21;;;;;;;3.08;2.78;;;19.80;58.70;;;;;;5135746;27;20054;-11
2022/10/29 02:57:47;;;;;;;4.25;2.80;;;19.80;58.60;;;;;;5136880;28;20082;-11
2022/10/29 03:00:13;;;;;;;4.28;3.13;;;19.80;58.60;;;;;;5136590;28;20072;-11
2022/10/29 03:02:39;;;;;;;4.22;2.95;;;19.90;58.60;;;;;;5136719;28;20495;-11
2022/10/29 03:05:05;;;;;;;4.40;3.47;;;19.80;58.60;;;;;;5136883;28;20406;-11
2022/10/29 03:07:37;;;;;;;4.47;3.10;;;19.80;58.60;;;;;;5136727;28;20055;-11
2022/10/29 03:10:04;;;;;;;4.63;2.95;;;19.80;58.60;;;;;;5137001;28;20391;-11
2022/10/29 03:12:30;;;;;;;5.50;2.85;;;19.80;58.60;;;;;;5136640;28;20062;-11
2022/10/29 03:14:56;;;;;;;4.15;2.97;;;19.90;58.60;;;;;;5137055;28;20055;-11
2022/10/29 03:17:22;;;;;;;4.05;2.80;;;19.80;58.60;;;;;;5136438;28;20130;-11
2022/10/29 03:19:47;;;;;;;4.75;2.75;;;19.90;58.60;;;;;;5136462;28;20043;-11
2022/10/29 03:22:13;;;;;;;4.10;2.88;;;19.80;58.60;;;;;;5136275;28;20043;-11
2022/10/29 03:24:38;;;;;;;3.50;2.70;;;19.80;58.60;;;;;;5136677;28;20058;-11
2022/10/29 03:27:04;;;;;;;5.72;2.65;;;19.80;58.60;;;;;;5136370;28;20039;-11
2022/10/29 03:29:30;;;;;;;5.60;2.75;;;19.80;58.60;;;;;;5136300;28;20087;-11
2022/10/29 03:31:55;;;;;;;4.68;3.03;;;19.80;58.60;;;;;;5136863;28;20051;-11
2022/10/29 03:34:21;;;;;;;3.45;2.78;;;19.90;58.60;;;;;;5136370;28;20059;-11
2022/10/29 03:36:47;;;;;;;5.05;2.58;;;19.80;58.60;;;;;;5136304;28;20062;-11
2022/10/29 03:39:12;;;;;;;5.22;3.30;;;19.80;58.60;;;;;;5136118;28;20058;-11
2022/10/29 03:41:38;;;;;;;3.47;2.65;;;19.80;58.60;;;;;;5136545;28;20043;-11
2022/10/29 03:44:03;;;;;;;5.38;3.28;;;19.80;58.60;;;;;;5136699;28;20523;-11
2022/10/29 03:46:29;;;;;;;4.10;2.75;;;19.80;58.60;;;;;;5136094;28;20505;-11
2022/10/29 03:48:55;;;;;;;4.55;2.72;;;19.80;58.60;;;;;;5136076;28;20099;-11
2022/10/29 03:51:21;;;;;;;4.63;2.97;;;19.80;58.60;;;;;;5135985;28;20170;-11
2022/10/29 03:53:46;;;;;;;4.45;2.92;;;19.80;58.60;;;;;;5135982;28;20392;-11
2022/10/29 03:56:12;;;;;;;3.47;2.80;;;19.80;58.60;;;;;;5136205;28;20079;-11
2022/10/29 03:58:37;;;;;;;3.10;2.65;;;19.80;58.60;;;;;;5135673;28;20054;-11
2022/10/29 04:01:05;;;;;;;4.72;2.83;;;19.80;58.60;;;;;;5135783;28;20047;-11
2022/10/29 04:03:33;;;;;;;4.55;3.10;;;19.80;58.60;;;;;;5117091;28;20050;-11
2022/10/29 04:06:00;;;;;;;3.50;2.75;;;19.80;58.60;;;;;;5134850;27;20487;-11
2022/10/29 04:08:26;;;;;;;3.90;3.08;;;19.80;58.70;;;;;;5135684;28;20051;-11
2022/10/29 04:10:52;;;;;;;4.07;3.08;;;19.80;58.60;;;;;;5117749;28;20051;-11
2022/10/29 04:13:18;;;;;;;4.35;3.15;;;19.90;58.80;;;;;;5135671;28;20050;-11
2022/10/29 04:15:44;;;;;;;4.63;3.17;;;19.90;58.70;;;;;;5135495;28;20059;-11
2022/10/29 04:18:14;;;;;;;5.68;2.70;;;19.90;58.70;;;;;;5135542;28;20059;-11
2022/10/29 04:20:40;;;;;;;6.07;3.28;;;19.90;58.70;;;;;;5135327;28;20536;-11
2022/10/29 04:23:06;;;;;;;4.50;2.70;;;19.90;58.70;;;;;;5135402;28;20051;-11
2022/10/29 04:25:32;;;;;;;6.05;3.30;;;19.90;58.70;;;;;;5135286;28;21381;-11
2022/10/29 04:27:57;;;;;;;6.45;3.55;;;19.90;58.70;;;;;;5135229;28;20078;-11
2022/10/29 04:30:24;;;;;;;3.85;2.50;;;19.90;58.70;;;;;;5135089;28;20047;-11
2022/10/29 04:32:50;;;;;;;4.38;3.13;;;19.90;58.60;;;;;;5135365;28;20055;-11
2022/10/29 04:35:15;;;;;;;3.63;2.83;;;19.90;58.60;;;;;;5135445;28;20062;-11
2022/10/29 04:37:41;;;;;;;5.35;3.13;;;19.90;58.60;;;;;;5135276;28;20054;-11
2022/10/29 04:40:07;;;;;;;4.28;2.83;;;20.00;58.60;;;;;;5135304;28;20514;-11
2022/10/29 04:42:37;;;;;;;4.55;3.47;;;20.00;58.50;;;;;;5135131;28;20554;-11
2022/10/29 04:45:04;;;;;;;4.43;2.85;;;20.00;58.50;;;;;;5135116;28;20051;-11
2022/10/29 04:47:29;;;;;;;4.88;2.90;;;20.00;58.50;;;;;;5135714;28;20494;-11
2022/10/29 04:49:55;;;;;;;5.35;2.50;;;20.00;58.50;;;;;;5134935;28;20055;-11
2022/10/29 04:52:20;;;;;;;5.65;3.33;;;20.10;58.50;;;;;;5135310;28;20466;-11
2022/10/29 04:54:46;;;;;;;3.55;2.92;;;20.10;58.50;;;;;;5134949;28;20167;-11
2022/10/29 04:57:11;;;;;;;3.42;2.55;;;20.10;58.60;;;;;;5135371;28;20070;-11
2022/10/29 04:59:37;;;;;;;4.43;2.90;;;20.00;58.50;;;;;;5134892;28;20082;-11
2022/10/29 05:02:02;;;;;;;3.67;2.85;;;20.00;58.60;;;;;;5135115;28;20100;-11
2022/10/29 05:04:28;;;;;;;3.90;2.78;;;20.00;58.50;;;;;;5134780;28;20047;-11
2022/10/29 05:06:54;;;;;;;4.32;2.70;;;20.00;58.50;;;;;;5134604;28;20051;-12
2022/10/29 05:09:19;;;;;;;3.53;2.95;;;20.00;58.60;;;;;;5134761;28;20058;-11
2022/10/29 05:11:45;;;;;;;3.28;2.80;;;20.00;58.60;;;;;;5134713;28;20487;-11
2022/10/29 05:14:11;;;;;;;5.00;2.90;;;20.00;58.60;;;;;;5134940;28;20058;-11
2022/10/29 05:16:36;;;;;;;5.35;3.22;;;20.00;58.60;;;;;;5134729;28;20051;-11
2022/10/29 05:19:03;;;;;;;4.60;2.85;;;20.00;58.60;;;;;;5134223;27;20103;-11
2022/10/29 05:21:29;;;;;;;4.07;2.58;;;20.00;58.70;;;;;;5134854;28;20042;-11
2022/10/29 05:23:55;;;;;;;4.20;2.50;;;20.00;58.70;;;;;;5134800;28;20047;-11
2022/10/29 05:26:20;;;;;;;2.85;2.50;;;20.00;58.70;;;;;;5134600;28;20043;-11
2022/10/29 05:28:50;;;;;;;3.88;2.63;;;20.00;58.70;;;;;;5134763;28;20099;-11
2022/10/29 05:31:16;;;;;;;3.92;2.70;;;20.00;58.80;;;;;;5134629;28;20059;-11
2022/10/29 05:33:41;;;;;;;3.47;3.00;;;19.90;58.80;;;;;;5134671;28;20057;-11
2022/10/29 05:36:07;;;;;;;4.68;2.60;;;19.90;58.70;;;;;;5134577;28;20058;-11
2022/10/29 05:38:32;;;;;;;3.35;2.58;;;19.90;59.20;;;;;;5134541;28;20051;-11
2022/10/29 05:40:58;;;;;;;4.38;3.03;;;19.90;58.70;;;;;;5134155;28;20051;-11
2022/10/29 05:43:24;;;;;;;4.53;3.13;;;19.90;58.70;;;;;;5134488;28;20483;-11
2022/10/29 05:45:49;;;;;;;3.42;2.72;;;19.90;58.70;;;;;;5134222;28;20051;-11
2022/10/29 05:48:16;;;;;;;3.65;2.45;;;20.00;58.80;;;;;;5134159;28;20115;-11
2022/10/29 05:50:42;;;;;;;5.10;2.95;;;19.90;58.70;;;;;;5134392;28;20085;-11
2022/10/29 05:53:12;;;;;;;3.17;2.40;;;19.90;58.70;;;;;;5134098;28;20055;-11
2022/10/29 05:55:38;;;;;;;5.22;2.95;;;19.90;58.70;;;;;;5134093;28;20047;-11
2022/10/29 05:58:08;;;;;;;3.83;2.65;;;19.90;58.70;;;;;;5133907;28;20138;-11
2022/10/29 06:00:36;;;;;;;4.53;3.53;;;19.90;58.70;;;;;;5133656;28;20047;-11
2022/10/29 06:03:02;;;;;;;3.90;2.78;;;19.90;58.70;;;;;;5134234;28;20104;-11
2022/10/29 06:05:27;;;;;;;4.15;2.50;;;19.90;58.70;;;;;;5133783;28;20047;-11
2022/10/29 06:07:57;;;;;;;3.42;2.67;;;19.90;58.70;;;;;;5134411;28;20058;-11
2022/10/29 06:10:24;;;;;;;5.23;2.70;;;19.90;58.80;;;;;;5134324;28;20192;-11
2022/10/29 06:12:50;;;;;;;4.53;2.70;;;19.90;58.80;;;;;;5133648;28;20066;-11
2022/10/29 06:15:16;;;;;;;3.72;2.70;;;20.00;58.80;;;;;;5133415;28;20411;-11
2022/10/29 06:17:44;;;;;;;3.95;2.53;;;19.90;58.80;;;;;;5134320;28;20051;-11
2022/10/29 06:20:12;;;;;;;3.03;2.33;;;19.90;58.70;;;;;;5133331;28;20399;-11
2022/10/29 06:22:38;;;;;;;4.57;2.78;;;19.90;58.70;;;;;;5133975;28;20043;-11
2022/10/29 06:25:03;;;;;;;3.38;2.60;;;19.90;58.70;;;;;;5133531;28;20392;-11
2022/10/29 06:27:29;;;;;;;4.78;2.33;;;20.00;58.80;;;;;;5133619;28;20057;-11
2022/10/29 06:29:55;;;;;;;4.97;2.63;;;20.00;58.80;;;;;;5137091;27;20055;-11
2022/10/29 06:32:20;;;;;;;5.03;3.20;;;20.00;58.80;;;;;;5140430;27;20449;-11
2022/10/29 06:34:46;;;;;;;3.70;2.85;;;20.00;58.70;;;;;;5140311;27;20490;-11
2022/10/29 06:37:11;;;;;;;4.13;2.20;;;20.00;58.70;;;;;;5140289;27;20096;-11
2022/10/29 06:39:37;;;;;;;5.78;3.30;;;19.90;58.70;;;;;;5140243;27;20054;-11
2022/10/29 06:42:03;;;;;;;4.47;2.97;;;20.00;58.70;;;;;;5120324;27;20582;-11
2022/10/29 06:44:29;;;;;;;3.20;2.75;;;19.90;58.70;;;;;;5140243;27;20055;-11
2022/10/29 06:46:54;;;;;;;4.97;2.38;;;20.00;58.70;;;;;;5140147;27;20055;-11
2022/10/29 06:49:20;;;;;;;4.55;2.92;;;20.00;58.70;;;;;;5140052;27;20158;-11
2022/10/29 06:51:46;;;;;;;4.75;2.63;;;20.00;58.70;;;;;;5140051;27;20051;-11
2022/10/29 06:54:11;;;;;;;3.55;2.70;;;20.00;58.70;;;;;;5140054;27;20047;-11
2022/10/29 06:56:37;;;;;;;4.38;2.38;;;20.00;58.70;;;;;;5140360;27;20043;-11
2022/10/29 06:59:03;;;;;;;4.82;2.67;;;20.00;58.70;;;;;;5140021;27;20078;-11
2022/10/29 07:01:31;;;;;;;4.57;2.83;;;20.00;58.60;;;;;;5121365;27;20448;-11
2022/10/29 07:03:57;;;;;;;3.20;2.58;;;20.00;58.60;;;;;;5140360;27;20145;-11
2022/10/29 07:06:23;;;;;;;4.38;2.88;;;20.00;58.60;;;;;;5140550;27;20054;-11
2022/10/29 07:08:48;;;;;;;3.25;2.25;;;20.00;58.50;;;;;;5139960;27;20051;-11
2022/10/29 07:11:14;;;;;;;3.85;3.13;;;20.00;58.50;;;;;;5139833;27;20043;-11
2022/10/29 07:13:40;;;;;;;3.75;2.72;;;20.10;58.50;;;;;;5140389;27;20059;-11
2022/10/29 07:16:06;;;;;;;3.22;2.50;;;20.00;58.50;;;;;;5139907;27;20051;-11
2022/10/29 07:18:32;;;;;;;6.43;3.05;;;20.00;58.60;;;;;;5139882;27;20050;-11
2022/10/29 07:20:58;;;;;;;4.35;2.70;;;20.00;58.50;;;;;;5139526;27;20057;-11
2022/10/29 07:23:23;;;;;;;3.78;2.50;;;20.00;58.60;;;;;;5139784;27;20058;-11
2022/10/29 07:25:52;;;;;;;3.65;2.30;;;20.00;58.60;;;;;;5140058;27;20047;-11
2022/10/29 07:28:20;;;;;;;3.55;2.25;;;20.00;58.50;;;;;;5139574;27;20061;-11
2022/10/29 07:30:47;;;;;;;4.65;2.58;;;20.00;58.60;;;;;;5139704;27;20047;-11
2022/10/29 07:33:13;;;;;;;3.13;2.42;;;20.00;58.60;;;;;;5139955;27;20469;-11
2022/10/29 07:35:39;;;;;;;4.18;2.55;;;20.00;58.60;;;;;;5139568;27;20070;-11
2022/10/29 07:38:06;;;;;;;4.07;2.58;;;20.00;58.60;;;;;;5139670;27;20138;-11
2022/10/29 07:40:32;;;;;;;4.20;2.70;;;20.00;58.60;;;;;;5138094;27;20058;-11
2022/10/29 07:42:58;;;;;;;3.13;2.50;;;20.00;58.60;;;;;;5136069;28;20106;-11
2022/10/29 07:45:24;;;;;;;4.53;2.90;;;20.00;58.60;;;;;;5136056;28;20407;-11
2022/10/29 07:48:00;;;;;;;3.47;2.42;;;20.00;58.60;;;;;;5136129;28;20461;-11
2022/10/29 07:50:27;;;;;;;3.60;2.60;;;20.00;58.50;;;;;;5135768;28;20051;-11
2022/10/29 07:52:53;;;;;;;3.10;2.72;;;20.00;58.50;;;;;;5135876;28;20619;-11
2022/10/29 07:55:18;;;;;;;4.07;2.72;;;20.00;58.50;;;;;;5135837;28;20086;-11
2022/10/29 07:57:44;;;;;;;5.53;2.72;;;20.10;58.50;;;;;;5135984;28;20051;-11
2022/10/29 08:00:11;;;;;;;3.30;2.30;;;20.00;58.50;;;;;;5135611;28;20059;-11
2022/10/29 08:02:41;;;;;;;3.50;2.45;;;20.00;58.50;;;;;;5135952;28;20055;-11
2022/10/29 08:05:07;;;;;;;3.35;2.35;;;20.10;58.50;;;;;;5135844;28;20065;-11
2022/10/29 08:07:33;;;;;;;3.70;2.47;;;20.00;58.40;;;;;;5135695;28;20085;-11
2022/10/29 08:09:58;;;;;;;4.15;2.58;;;20.10;58.40;;;;;;5135519;28;20075;-11
2022/10/29 08:12:24;;;;;;;4.07;2.63;;;20.10;58.40;;;;;;5136163;28;20439;-11
2022/10/29 08:14:49;;;;;;;3.70;2.40;;;20.00;58.40;;;;;;5135671;28;20051;-11
2022/10/29 08:17:15;;;;;;;3.88;2.80;;;20.10;58.40;;;;;;5135566;28;20059;-11
2022/10/29 08:19:40;;;;;;;4.15;2.75;;;20.10;58.40;;;;;;5135900;28;20463;-11
2022/10/29 08:22:06;;;;;;;3.03;2.28;;;20.10;58.40;;;;;;5135464;28;20130;-11
2022/10/29 08:24:32;;;;;;;3.35;2.60;;;20.10;58.40;;;;;;5135767;28;20058;-11
2022/10/29 08:26:57;;;;;;;2.95;2.10;;;20.10;58.30;;;;;;5135440;28;20058;-11
2022/10/29 08:29:23;;;;;;;4.40;2.38;;;20.10;58.30;;;;;;5135191;28;20074;-11
2022/10/29 08:31:48;;;;;;;3.92;2.53;;;20.10;58.40;;;;;;5135987;28;20059;-11
2022/10/29 08:34:14;;;;;;;4.25;2.53;;;20.10;58.30;;;;;;5135361;28;20054;-11
2022/10/29 08:36:40;;;;;;;3.85;2.65;;;20.10;58.30;;;;;;5135808;28;20055;-11
2022/10/29 08:39:06;;;;;;;3.35;2.15;;;20.10;58.30;;;;;;5135105;28;20079;-11
2022/10/29 08:42:06;;;;;;;3.05;2.60;;;20.10;58.20;;;;;;5135078;28;20086;-11
2022/10/29 08:44:32;;;;;;;3.85;2.22;;;20.10;58.20;;;;;;5135124;28;20410;-11
2022/10/29 08:47:11;;;;;;;3.55;2.58;;;20.10;58.20;;;;;;5135269;28;20059;-12
2022/10/29 08:49:46;;;;;;;4.88;2.92;;;20.20;58.20;;;;;;5135158;28;20417;-11
2022/10/29 08:52:19;;;;;;;4.15;2.47;;;20.20;58.20;;;;;;5134502;27;20051;-11
2022/10/29 08:54:50;;;;;;;3.17;2.35;;;20.10;58.10;;;;;;5135356;28;20046;-11
2022/10/29 08:57:19;;;;;;;3.95;2.42;;;20.20;58.20;;;;;;5134718;28;20119;-11
2022/10/29 09:00:00;;;;;;;2.63;2.33;;;20.20;58.20;;;;;;5134863;28;20051;-11
2022/10/29 09:02:25;;;;;;;3.27;2.97;;;20.20;58.20;;;;;;5134849;28;20051;-11
2022/10/29 09:04:51;;;;;;;3.00;2.38;;;20.20;58.20;;;;;;5134854;28;20398;-11
2022/10/29 09:07:58;;;;;;;3.05;2.25;;;20.10;58.10;;;;;;5134630;28;20055;-11
2022/10/29 09:10:29;;;;;;;3.55;2.45;;;20.20;58.20;;;;;;5134744;28;20059;-11
2022/10/29 09:13:25;;;;;;;4.10;2.67;;;20.10;58.20;;;;;;5134671;28;20551;-11
2022/10/29 09:16:05;;;;;;;4.35;2.45;;;20.20;58.20;;;;;;5134712;28;20531;-11
2022/10/29 09:19:15;;;;;;;3.92;2.50;;;20.10;58.20;;;;;;5134392;28;20138;-11
2022/10/29 09:21:59;;;;;;;3.05;2.20;;;20.10;58.20;;;;;;5134509;28;20043;-11
2022/10/29 09:24:34;;;;;;;5.03;2.13;;;20.10;58.10;;;;;;5134903;28;20062;-11
2022/10/29 09:27:07;;;;;;;2.63;2.40;;;20.20;58.20;;;;;;5134546;28;20058;-11
2022/10/29 09:30:03;;;;;;;2.75;2.05;;;20.20;58.20;;;;;;5134678;28;20479;-12
2022/10/29 09:32:41;;;;;;;4.97;2.63;;;20.20;58.10;;;;;;5134687;28;20479;-11
2022/10/29 09:35:14;;;;;;;3.78;2.58;;;20.20;58.00;;;;;;5134512;28;20130;-11
2022/10/29 09:37:48;;;;;;;3.63;2.70;;;20.20;58.00;;;;;;5134390;28;20099;-11
2022/10/29 09:40:31;;;;;;;4.15;2.30;;;20.30;58.00;;;;;;5134294;28;20063;-11
2022/10/29 09:43:00;;;;;;;3.78;2.60;;;20.30;57.90;;;;;;5134557;28;20100;-11
2022/10/29 09:45:43;;;;;;;3.13;2.30;;;20.30;57.80;;;;;;5134060;28;20051;-11
2022/10/29 09:48:12;;;;;;;2.80;2.20;;;20.30;57.80;;;;;;5134146;28;20047;-12
2022/10/29 09:50:47;;;;;;;2.42;2.13;;;20.30;57.70;;;;;;5134496;28;20062;-11
2022/10/29 09:53:13;;;;;;;4.40;2.67;;;20.30;57.70;;;;;;5134233;28;20066;-11
2022/10/29 09:55:43;;;;;;;3.63;2.40;;;20.30;57.70;;;;;;5115679;28;20093;-11
2022/10/29 09:58:19;;;;;;;3.45;2.20;;;20.30;57.70;;;;;;5133193;28;20055;-12
2022/10/29 10:00:45;;;;;;;2.55;2.20;;;20.30;57.80;;;;;;5133912;28;20046;-11
2022/10/29 10:03:25;;;;;;;3.80;2.40;;;20.20;57.80;;;;;;5134197;27;20051;-11
2022/10/29 10:06:05;;;;;;;4.25;2.30;;;20.30;57.80;;;;;;5133403;28;20522;-12
2022/10/29 10:08:31;;;;;;;3.95;2.75;;;20.30;57.80;;;;;;5134371;28;20047;-11
2022/10/29 10:11:06;;;;;;;4.07;2.38;;;20.30;57.80;;;;;;5133805;28;20092;-11
2022/10/29 10:13:35;;;;;;;3.47;2.30;;;20.30;57.80;;;;;;5133807;28;20058;-11
2022/10/29 10:16:02;;;;;;;3.88;2.15;;;20.30;57.80;;;;;;5133667;28;20047;-11
2022/10/29 10:18:31;;;;;;;3.45;2.20;;;20.30;57.80;;;;;;5134246;28;20054;-12
2022/10/29 10:21:03;;;;;;;4.00;2.58;;;20.30;57.70;;;;;;5133523;28;20391;-11
2022/10/29 10:23:45;;;;;;;4.35;2.35;;;20.30;57.70;;;;;;5134040;28;20051;-11
2022/10/29 10:26:32;;;;;;;3.25;2.28;;;20.30;57.70;;;;;;5133605;28;20066;-11
2022/10/29 10:29:16;;;;;;;3.58;2.40;;;20.30;57.70;;;;;;5133353;28;20047;-11
2022/10/29 10:31:44;;;;;;;2.92;2.25;;;20.30;57.70;;;;;;5133548;28;20126;-11
2022/10/29 10:34:19;;;;;;;3.95;2.25;;;20.30;58.20;;;;;;5133582;28;20066;-11
2022/10/29 10:37:00;;;;;;;3.67;2.45;;;20.30;57.70;;;;;;5133628;28;20505;-11
2022/10/29 10:39:26;;;;;;;;;;;20.30;57.70;;;;;;5133695;28;20134;-11
2022/10/29 10:41:54;;;;;;;3.92;2.25;;;20.30;57.70;;;;;;5133623;28;20337;-11
2022/10/29 10:44:21;;;;;;;5.43;2.30;;;20.30;57.70;;;;;;5133480;28;20047;-11
2022/10/29 10:46:50;;;;;;;3.97;2.30;;;20.30;57.70;;;;;;5133431;28;20062;-11
2022/10/29 10:49:36;;;;;;;2.60;2.40;;;20.30;57.70;;;;;;5132973;28;20066;-11
2022/10/29 10:52:16;;;;;;;3.40;2.47;;;20.30;57.70;;;;;;5133657;28;20044;-11
2022/10/29 10:54:59;;;;;;;3.58;2.50;;;20.30;57.70;;;;;;5133328;28;20078;-11
2022/10/29 10:57:30;;;;;;;3.33;2.40;;;20.30;57.70;;;;;;5133274;28;20047;-11
2022/10/29 11:00:06;;;;;;;3.22;2.30;;;20.30;57.70;;;;;;5133872;28;20455;-11
2022/10/29 11:02:53;;;;;;;3.35;2.60;;;20.30;57.70;;;;;;5133415;28;20494;-11
2022/10/29 11:05:53;;;;;;;2.17;1.83;;;20.30;57.70;;;;;;5133010;28;20050;-11
2022/10/29 11:08:32;;;;;;;4.13;2.47;;;20.30;57.70;;;;;;5128446;28;20502;-11
2022/10/29 11:11:02;;;;;;;3.38;2.42;;;20.30;57.70;;;;;;5133688;28;20039;-11
2022/10/29 11:13:30;;;;;;;3.65;2.45;;;20.30;57.70;;;;;;5133381;28;20467;-11
2022/10/29 11:16:06;;;;;;;2.63;2.15;;;20.30;57.60;;;;;;5134829;27;20055;-11
2022/10/29 11:18:41;;;;;;;5.13;3.00;;;20.30;57.60;;;;;;5136484;28;20059;-11
2022/10/29 11:21:23;;;;;;;2.63;2.28;;;20.30;57.50;;;;;;5136444;28;20466;-11
2022/10/29 11:24:02;;;;;;;2.95;2.10;;;20.30;57.50;;;;;;5136866;28;20043;-11
2022/10/29 11:26:49;;;;;;;3.25;2.20;;;20.30;57.50;;;;;;5136692;28;20058;-11
2022/10/29 11:29:46;;;;;;;2.72;2.33;;;20.30;57.50;;;;;;5136137;28;20134;-11
2022/10/29 11:32:33;;;;;;;3.33;2.50;;;20.40;57.60;;;;;;5136162;28;20036;-11
2022/10/29 11:35:12;;;;;;;3.60;2.33;;;20.30;57.50;;;;;;5136271;28;20043;-11
2022/10/29 11:37:52;;;;;;;3.08;2.25;;;20.40;57.50;;;;;;5136241;28;20108;-11
2022/10/29 11:40:22;;;;;;;2.42;2.20;;;20.40;57.50;;;;;;5136283;28;20139;-11
2022/10/29 11:42:48;;;;;;;3.05;2.30;;;20.30;57.50;;;;;;5136501;28;20467;-11
2022/10/29 11:45:19;;;;;;;4.38;2.22;;;20.30;58.00;;;;;;5135807;28;20055;-11
2022/10/29 11:47:57;;;;;;;3.00;2.20;;;20.30;57.50;;;;;;5136418;28;20423;-11
2022/10/29 11:50:32;;;;;;;3.25;2.40;;;20.40;57.50;;;;;;5136405;28;20058;-11
2022/10/29 11:53:05;;;;;;;3.33;2.35;;;20.40;57.50;;;;;;5136465;28;20470;-11
2022/10/29 11:56:02;;;;;;;3.10;2.45;;;20.30;57.40;;;;;;5135812;28;20051;-11
2022/10/29 11:58:35;;;;;;;3.35;2.47;;;20.40;57.50;;;;;;5135449;28;20467;-12
2022/10/29 12:01:19;;;;;;;2.90;2.17;;;20.40;57.40;;;;;;5136402;28;20081;-11
2022/10/29 12:04:13;;;;;;;4.20;2.88;;;20.40;57.40;;;;;;5136165;28;20053;-11
2022/10/29 12:06:57;;;;;;;3.55;2.00;;;20.40;57.40;;;;;;5135673;28;20108;-11
2022/10/29 12:09:56;;;;;;;2.65;2.30;;;20.40;57.40;;;;;;5136208;28;20055;-11
2022/10/29 12:12:42;;;;;;;3.10;2.40;;;20.40;57.40;;;;;;5135714;28;20080;-11
2022/10/29 12:15:30;;;;;;;3.22;2.10;;;20.40;57.40;;;;;;5135612;28;20051;-11
2022/10/29 12:18:23;;;;;;;3.55;2.00;;;20.40;57.40;;;;;;5135740;28;20146;-11
2022/10/29 12:21:01;;;;;;;3.35;2.28;;;20.40;57.40;;;;;;5135500;28;20129;-11
2022/10/29 12:23:26;;;;;;;3.58;2.45;;;20.40;57.30;;;;;;5135892;28;20059;-11
2022/10/29 12:26:07;;;;;;;2.95;2.38;;;20.40;57.30;;;;;;5135419;28;20192;-11
2022/10/29 12:29:01;;;;;;;3.25;2.20;;;20.40;57.30;;;;;;5134504;27;20095;-11
2022/10/29 12:31:41;;;;;;;4.35;2.30;;;20.40;57.20;;;;;;5135383;28;20097;-11
2022/10/29 12:34:06;;;;;;;4.97;2.30;;;20.40;57.20;;;;;;5135460;28;20120;-11
2022/10/29 12:36:36;;;;;;;2.60;2.08;;;20.40;57.20;;;;;;5135896;28;20475;-11
2022/10/29 12:39:09;;;;;;;3.97;2.55;;;20.40;57.10;;;;;;5135238;28;20039;-11
2022/10/29 12:41:41;;;;;;;3.15;2.28;;;20.40;57.10;;;;;;5135181;28;20038;-11
2022/10/29 12:44:33;;;;;;;3.95;2.60;;;20.40;57.10;;;;;;5135338;28;20069;-11
2022/10/29 12:47:22;;;;;;;3.13;2.40;;;20.40;57.10;;;;;;5135377;28;20039;-11
2022/10/29 12:50:24;;;;;;;3.17;2.25;;;20.40;57.20;;;;;;5135107;28;20162;-11
2022/10/29 12:53:21;;;;;;;3.28;2.08;;;20.40;57.20;;;;;;5135195;28;20051;-11
2022/10/29 12:55:47;;;;;;;3.58;2.40;;;20.40;57.20;;;;;;5134954;28;20055;-11
2022/10/29 12:58:51;;;;;;;2.67;2.17;;;20.40;57.20;;;;;;5134914;28;20071;-11
2022/10/29 13:01:29;;;;;;;3.90;2.40;;;20.40;57.20;;;;;;5135178;28;20047;-11
2022/10/29 13:03:55;;;;;;;3.58;2.15;;;20.40;57.20;;;;;;5135166;28;20054;-11
2022/10/29 13:06:43;;;;;;;2.63;2.25;;;20.40;57.20;;;;;;5134615;28;20051;-11
2022/10/29 13:09:25;;;;;;;2.33;2.13;;;20.40;57.20;;;;;;5134751;28;20054;-11
2022/10/29 13:11:54;;;;;;;3.13;2.40;;;20.40;57.20;;;;;;5134863;28;20050;-11